createdAt,value
2018-06-01T00:02:13.162Z,11.61
2018-06-01T00:08:08.139Z,10.14
2018-06-01T00:14:03.086Z,10.15
2018-06-01T00:19:58.314Z,10.46
2018-06-01T00:25:53.133Z,11.63
2018-06-01T00:31:48.183Z,9.72
2018-06-01T00:37:43.113Z,10.13
2018-06-01T00:43:38.238Z,10.74
2018-06-01T00:49:33.173Z,11.25
2018-06-01T00:55:28.167Z,11.63
2018-06-01T01:01:23.143Z,11.39
2018-06-01T01:07:18.149Z,11.21
2018-06-01T01:13:13.283Z,11.06
2018-06-01T01:19:08.223Z,10.63
2018-06-01T01:25:03.494Z,10.92
2018-06-01T01:30:58.162Z,10.65
2018-06-01T01:36:53.867Z,10.25
2018-06-01T01:42:48.187Z,10.84
2018-06-01T01:48:43.172Z,10.18
2018-06-01T01:54:38.206Z,10.86
2018-06-01T02:00:33.244Z,10.09
2018-06-01T02:06:28.211Z,10.73
2018-06-01T02:12:23.305Z,11.07
2018-06-01T02:18:18.214Z,11.88
2018-06-01T02:24:13.271Z,10.03
2018-06-01T02:30:08.283Z,11.86
2018-06-01T02:36:03.239Z,11.29
2018-06-01T02:41:58.254Z,11.22
2018-06-01T02:47:53.226Z,11.16
2018-06-01T02:53:48.250Z,11.21
2018-06-01T02:59:43.399Z,10.9
2018-06-01T03:05:38.300Z,10.62
2018-06-01T03:11:33.243Z,10.78
2018-06-01T03:17:28.287Z,12.17
2018-06-01T03:23:23.322Z,10.29
2018-06-01T03:29:18.289Z,11.66
2018-06-01T03:35:13.256Z,12.38
2018-06-01T03:41:08.249Z,11.46
2018-06-01T03:47:03.241Z,12.11
2018-06-01T03:52:58.303Z,11.56
2018-06-01T03:58:53.322Z,11.63
2018-06-01T04:04:48.487Z,11.36
2018-06-01T04:10:43.283Z,13.08
2018-06-01T04:16:38.275Z,12.74
2018-06-01T04:22:33.300Z,11.74
2018-06-01T04:28:28.321Z,11.65
2018-06-01T04:34:23.350Z,12.2
2018-06-01T04:40:18.280Z,11.61
2018-06-01T04:46:13.383Z,12.63
2018-06-01T04:52:08.345Z,13.19
2018-06-01T04:58:03.327Z,14.06
2018-06-01T05:03:58.358Z,13.77
2018-06-01T05:09:53.319Z,13.65
2018-06-01T05:15:48.347Z,13.73
2018-06-01T05:21:43.341Z,11.79
2018-06-01T05:27:38.343Z,13.52
2018-06-01T05:33:33.361Z,15.51
2018-06-01T05:39:28.319Z,16.12
2018-06-01T05:45:23.330Z,16.31
2018-06-01T05:51:18.347Z,14.28
2018-06-01T05:57:13.417Z,15.43
2018-06-01T06:03:08.359Z,14.72
2018-06-01T06:09:03.440Z,14.86
2018-06-01T06:14:58.371Z,12.89
2018-06-01T06:20:53.458Z,11.96
2018-06-01T06:26:48.438Z,11.65
2018-06-01T06:32:43.376Z,11.07
2018-06-01T06:38:38.551Z,11.2
2018-06-01T06:44:33.424Z,11.71
2018-06-01T06:50:28.400Z,11.37
2018-06-01T06:56:23.395Z,11.56
2018-06-01T07:02:18.438Z,10.59
2018-06-01T07:08:13.440Z,9.81
2018-06-01T07:14:08.408Z,9.73
2018-06-01T07:20:03.644Z,10.45
2018-06-01T07:25:58.432Z,11.48
2018-06-01T07:31:53.446Z,10.2
2018-06-01T07:37:48.477Z,10.18
2018-06-01T07:43:43.428Z,9.34
2018-06-01T07:49:38.500Z,9.57
2018-06-01T07:55:33.474Z,9.76
2018-06-01T08:01:28.449Z,8
2018-06-01T08:07:23.493Z,7.62
2018-06-01T08:13:18.468Z,7.26
2018-06-01T08:19:13.538Z,8.24
2018-06-01T08:25:08.463Z,7.91
2018-06-01T08:31:03.488Z,7.59
2018-06-01T08:36:58.501Z,7.62
2018-06-01T08:42:53.484Z,8.4
2018-06-01T08:48:48.523Z,8.06
2018-06-01T08:54:43.468Z,6.42
2018-06-01T09:00:38.560Z,7.2
2018-06-01T09:06:33.515Z,7.04
2018-06-01T09:12:28.529Z,8.07
2018-06-01T09:18:23.506Z,6.37
2018-06-01T09:24:18.544Z,6.1
2018-06-01T09:30:13.510Z,6.9
2018-06-01T09:36:08.535Z,6.79
2018-06-01T09:42:03.532Z,6.38
2018-06-01T09:47:58.576Z,6.49
2018-06-01T09:53:53.552Z,6.48
2018-06-01T09:59:48.569Z,7.08
2018-06-01T10:05:43.516Z,6.65
2018-06-01T10:11:38.604Z,6.2
2018-06-01T10:17:33.542Z,6.49
2018-06-01T10:23:28.564Z,6.4
2018-06-01T10:29:23.607Z,5.75
2018-06-01T10:35:18.576Z,5.76
2018-06-01T10:41:13.605Z,9.1
2018-06-01T10:47:08.543Z,5.87
2018-06-01T10:53:03.614Z,6.09
2018-06-01T10:58:58.639Z,5.95
2018-06-01T11:04:53.630Z,5.47
2018-06-01T11:10:48.575Z,5.42
2018-06-01T11:16:43.648Z,5.67
2018-06-01T11:22:38.603Z,4.67
2018-06-01T11:28:33.643Z,4.77
2018-06-01T11:34:28.633Z,4.95
2018-06-01T11:40:23.620Z,4.41
2018-06-01T11:46:18.667Z,4.79
2018-06-01T11:52:13.603Z,3.7
2018-06-01T11:58:08.672Z,3.81
2018-06-01T12:04:03.667Z,3.83
2018-06-01T12:09:58.656Z,3.69
2018-06-01T12:15:53.625Z,3.92
2018-06-01T12:21:48.658Z,4.06
2018-06-01T12:27:43.655Z,3.54
2018-06-01T12:33:38.751Z,3.82
2018-06-01T12:39:33.710Z,3.97
2018-06-01T12:45:28.676Z,3.79
2018-06-01T12:51:23.732Z,3.79
2018-06-01T12:57:18.709Z,3.86
2018-06-01T13:03:13.716Z,4.08
2018-06-01T13:09:08.677Z,3.57
2018-06-01T13:15:03.753Z,3.86
2018-06-01T13:20:58.748Z,4.19
2018-06-01T13:26:53.729Z,3.89
2018-06-01T13:32:48.722Z,4.13
2018-06-01T13:38:43.791Z,3.89
2018-06-01T13:44:38.749Z,4.4
2018-06-01T13:50:33.770Z,4.24
2018-06-01T13:56:28.799Z,4.49
2018-06-01T14:02:23.775Z,4.32
2018-06-01T14:08:18.778Z,4.79
2018-06-01T14:14:13.792Z,4.91
2018-06-01T14:20:08.815Z,4.57
2018-06-01T14:26:03.796Z,4.6
2018-06-01T14:31:58.788Z,4.99
2018-06-01T14:37:53.856Z,4.51
2018-06-01T14:43:48.851Z,4.39
2018-06-01T14:49:43.863Z,4.27
2018-06-01T14:55:38.772Z,4.24
2018-06-01T15:01:33.801Z,4.55
2018-06-01T15:07:28.823Z,4.04
2018-06-01T15:13:23.901Z,4.66
2018-06-01T15:19:18.859Z,4.6
2018-06-01T15:25:13.845Z,4.98
2018-06-01T15:31:08.828Z,4.13
2018-06-01T15:37:03.875Z,4.08
2018-06-01T15:42:58.838Z,4.01
2018-06-01T15:48:53.875Z,3.95
2018-06-01T15:54:48.841Z,3.76
2018-06-01T16:00:43.846Z,3.95
2018-06-01T16:06:39.075Z,4.1
2018-06-01T16:12:33.923Z,3.92
2018-06-01T16:18:28.932Z,3.9
2018-06-01T16:24:23.898Z,4.12
2018-06-01T16:30:18.970Z,4.3
2018-06-01T16:36:13.865Z,4.61
2018-06-01T16:42:08.890Z,4.15
2018-06-01T16:48:03.955Z,3.67
2018-06-01T16:53:58.881Z,4.53
2018-06-01T16:59:53.905Z,4.43
2018-06-01T17:05:48.879Z,4.92
2018-06-01T17:11:43.911Z,4.96
2018-06-01T17:17:38.953Z,4.17
2018-06-01T17:23:33.900Z,4.81
2018-06-01T17:29:28.984Z,4.74
2018-06-01T17:35:23.966Z,5.23
2018-06-01T17:41:18.915Z,4.6
2018-06-01T17:47:13.964Z,5.51
2018-06-01T17:53:08.946Z,5.19
2018-06-01T17:59:03.933Z,5.17
2018-06-01T18:04:58.957Z,5.64
2018-06-01T18:10:53.981Z,5.23
2018-06-01T18:16:48.987Z,5.81
2018-06-01T18:22:44.044Z,5.33
2018-06-01T18:28:39.041Z,5.74
2018-06-01T18:34:34.024Z,5.9
2018-06-01T18:40:28.990Z,5.82
2018-06-01T18:46:24.015Z,5.82
2018-06-01T18:52:18.992Z,6.27
2018-06-01T18:58:14.034Z,5.88
2018-06-01T19:04:09.081Z,6.32
2018-06-01T19:10:04.013Z,6.11
2018-06-01T19:15:59.090Z,6.4
2018-06-01T19:21:54.013Z,7.39
2018-06-01T19:27:49.046Z,7.2
2018-06-01T19:33:44.042Z,6.72
2018-06-01T19:39:39.128Z,6.8
2018-06-01T19:45:34.043Z,7.18
2018-06-01T19:51:29.045Z,7.43
2018-06-01T19:57:24.036Z,6.7
2018-06-01T20:03:19.101Z,7.4
2018-06-01T20:09:14.019Z,7.14
2018-06-01T20:15:09.054Z,6.78
2018-06-01T20:21:04.057Z,7.62
2018-06-01T20:26:59.101Z,7.44
2018-06-01T20:32:54.163Z,8.56
2018-06-01T20:38:49.085Z,7.53
2018-06-01T20:44:44.081Z,8.08
2018-06-01T20:50:39.081Z,8.02
2018-06-01T20:56:34.117Z,7.79
2018-06-01T21:02:29.083Z,7.43
2018-06-01T21:08:24.207Z,8.37
2018-06-01T21:14:19.116Z,8.79
2018-06-01T21:20:14.107Z,8.01
2018-06-01T21:26:09.124Z,8.25
2018-06-01T21:32:04.140Z,8.04
2018-06-01T21:37:59.136Z,7.76
2018-06-01T21:43:54.121Z,7.75
2018-06-01T21:49:49.129Z,7.79
2018-06-01T21:55:44.142Z,8.52
2018-06-01T22:01:39.124Z,8.22
2018-06-01T22:07:34.156Z,8.51
2018-06-01T22:13:29.190Z,8.64
2018-06-01T22:19:24.133Z,9.04
2018-06-01T22:25:19.228Z,9.18
2018-06-01T22:31:14.122Z,7.91
2018-06-01T22:37:09.208Z,7.84
2018-06-01T22:43:04.211Z,8.53
2018-06-01T22:48:59.145Z,8.65
2018-06-01T22:54:54.164Z,8.58
2018-06-01T23:00:49.249Z,9.5
2018-06-01T23:06:44.176Z,8.84
2018-06-01T23:12:39.181Z,9.41
2018-06-01T23:18:34.158Z,8.88
2018-06-01T23:24:29.231Z,9.31
2018-06-01T23:30:24.220Z,9.35
2018-06-01T23:36:19.211Z,9.28
2018-06-01T23:42:14.244Z,9.52
2018-06-01T23:48:09.207Z,10.14
2018-06-01T23:54:04.202Z,9.54
2018-06-01T23:59:59.231Z,9.33
